Aérodrome :
LOGIN :

S'inscrire | Disclaimer

   EN    FR    IT 

 










Légende :    VFR   VFR Marginal   IFR   IFR Intensif   IFR Très Intensif
Visi : 
Plafond : 
>= 8 km
>= 3000ft
5 à 8 km
1000 à 3000 ft
1500m à 5 km
500 à 1000 ft
800 à 1500m
200 à 500 ft
< 800m
< 200 ft
Symboles :   Orages  Brouillard  Fortes neiges  Fortes précipitations  Vent > 20 kt
SIGMETs :   Divers  Orages  Givrage  Turbulence  Onde Orograph.  Cendres Volcan.







- Altitude de l'aérodrome : 506 ft
- Code IATA : GOT


ESGG - Landvetter

DERNIER METAR :
  • 222020Z 02006KT 5000 BR SCT024 11/11 Q1022

METARs EXPIRÉS :
  • 221950Z 03004KT 9999 OVC006 11/10 Q1022
  • 221920Z 04005KT 9999 SCT008 OVC029 11/10 Q1022
  • 221850Z 03006KT 9999 BKN009 OVC032 11/10 Q1022
  • 221820Z 04006KT 9999 BKN008 11/10 Q1022
  • 221750Z 03006KT 9999 BKN004 OVC033 11/10 Q1022

TAF TAF ESGG
Valide du 22 à 18h jusqu'au 23 à 18h UTC


221730Z 2218/2318 03007KT 9999 -RA BKN007
PROB40 2218/2310 2500 RADZ BR OVC004
PROB40 2310/2314 BKN010
PROB40 2314/2318 BKN020
Pas de NOTAMs connus pour ce terrain.



MET'MAP, la Météo Aéronautique d'un coup d'oeil ! - Copyright ORBIFLY Décembre 2007 - Disclaimer

ORBIFLY MET'MAP TEAM :

Programmation & Développement : Alexandra Zaïnal
Conception & Développement : Baudouin d'Aumeries
Co-Programmation & Développement : Marc-Olivier Méhu
Soutien technique & logistique : Manuel Goepfert

Contact : metmap@orbifly.com




SOURCES & CREDITS :

   NOAA